Time;durP1;ratioP1;P1;durP2;ratioP2;P2;SDS_P1;SDS_P2;PMS_P1;PMS_P2;Temp;Humidity;BMP_temperature;BMP_pressure;BME280_temperature;BME280_humidity;BME280_pressure;Samples;Min_cycle;Max_cycle;Signal;HPM_P1;HPM_P2
2021/12/16 00:09:10;;;;;;;76.77;38.37;;;8.40;99.90;;;;;;5097712;28;20165;-68
2021/12/16 00:33:40;;;;;;;75.83;36.90;;;8.40;99.90;;;;;;5096806;28;20180;-68
2021/12/16 00:36:08;;;;;;;72.37;37.53;;;8.40;99.90;;;;;;5096707;28;20230;-68
2021/12/16 00:38:35;;;;;;;72.53;36.33;;;8.40;99.90;;;;;;5096215;28;20161;-68
2021/12/16 00:41:01;;;;;;;79.70;37.40;;;8.40;99.90;;;;;;5094713;28;20188;-68
2021/12/16 00:46:28;;;;;;;77.53;37.73;;;8.40;99.90;;;;;;5096055;28;20245;-68
2021/12/16 00:49:41;;;;;;;80.33;36.80;;;8.40;99.90;;;;;;5094776;28;20169;-68
2021/12/16 00:54:28;;;;;;;74.13;34.77;;;8.30;99.90;;;;;;5095826;28;20249;-68
2021/12/16 00:57:00;;;;;;;81.40;35.97;;;8.40;99.90;;;;;;5095885;28;20176;-68
2021/12/16 00:59:31;;;;;;;66.77;32.43;;;8.30;99.90;;;;;;5094490;28;20178;-68
2021/12/16 01:40:18;;;;;;;70.87;33.80;;;8.30;99.90;;;;;;5095341;28;20160;-68
2021/12/16 01:50:36;;;;;;;73.47;33.27;;;8.30;99.90;;;;;;5094720;28;20196;-68
2021/12/16 01:55:49;;;;;;;73.43;33.93;;;8.30;99.90;;;;;;5094638;28;20201;-68
2021/12/16 01:58:19;;;;;;;71.83;34.97;;;8.30;99.90;;;;;;5094679;28;20157;-68
2021/12/16 02:00:56;;;;;;;69.07;33.70;;;8.30;99.90;;;;;;5095044;28;20183;-68
2021/12/16 02:03:41;;;;;;;66.63;32.67;;;8.30;99.90;;;;;;5093148;28;20165;-68
2021/12/16 02:08:50;;;;;;;74.23;34.03;;;8.30;99.90;;;;;;5094700;28;20153;-68
2021/12/16 02:11:37;;;;;;;73.13;33.10;;;8.30;99.90;;;;;;5094937;28;20210;-68
2021/12/16 02:33:34;;;;;;;68.63;34.10;;;8.30;99.90;;;;;;5094153;28;20185;-68
2021/12/16 02:35:40;;;;;;;77.33;34.50;;;8.30;99.90;;;;;;5090634;28;20221;-68
2021/12/16 02:38:07;;;;;;;73.93;34.23;;;8.30;99.90;;;;;;5092663;28;20165;-68
2021/12/16 02:40:34;;;;;;;71.10;33.40;;;8.30;99.90;;;;;;5092604;28;20176;-68
2021/12/16 02:43:20;;;;;;;79.43;35.87;;;8.30;99.90;;;;;;5093872;28;20173;-68
2021/12/16 02:48:36;;;;;;;76.83;34.97;;;8.20;99.90;;;;;;5094362;28;20176;-68
2021/12/16 02:51:11;;;;;;;74.00;34.33;;;8.20;99.90;;;;;;5093819;28;20153;-68
2021/12/16 02:53:43;;;;;;;69.73;33.53;;;8.20;99.90;;;;;;5093686;28;20208;-68
2021/12/16 02:56:09;;;;;;;69.70;32.10;;;8.20;99.90;;;;;;5093810;28;20193;-68
2021/12/16 02:58:38;;;;;;;65.53;32.23;;;8.20;99.90;;;;;;5093596;28;20175;-68
2021/12/16 03:01:10;;;;;;;70.07;32.27;;;8.20;99.90;;;;;;5093590;28;20169;-68
2021/12/16 03:03:38;;;;;;;71.70;34.00;;;8.20;99.90;;;;;;5093743;28;20189;-68
2021/12/16 03:06:05;;;;;;;67.70;33.53;;;8.20;99.90;;;;;;5093792;28;20512;-68
2021/12/16 03:08:32;;;;;;;74.70;34.73;;;8.20;99.90;;;;;;5092158;28;20271;-68
2021/12/16 03:13:54;;;;;;;83.67;36.10;;;8.20;99.90;;;;;;5093599;28;20196;-68
2021/12/16 03:16:29;;;;;;;79.00;33.43;;;8.20;99.90;;;;;;5093734;28;20268;-68
2021/12/16 03:21:35;;;;;;;78.83;35.97;;;8.20;99.90;;;;;;5093790;28;20211;-68
2021/12/16 03:24:37;;;;;;;87.60;37.83;;;8.20;99.90;;;;;;5093421;28;20197;-68
2021/12/16 03:27:32;;;;;;;86.97;36.83;;;8.30;99.90;;;;;;5093038;28;20172;-68
2021/12/16 03:30:27;;;;;;;91.80;39.77;;;8.30;99.90;;;;;;5093252;28;20223;-68
2021/12/16 03:38:00;;;;;;;91.47;37.63;;;8.30;99.90;;;;;;5098174;28;20328;-67
2021/12/16 03:40:27;;;;;;;95.97;38.00;;;8.30;99.90;;;;;;5098108;28;20628;-67
2021/12/16 03:43:15;;;;;;;91.90;38.77;;;8.30;99.90;;;;;;5097830;28;20558;-68
2021/12/16 03:49:09;;;;;;;90.50;38.47;;;8.30;99.90;;;;;;5097957;28;20579;-68
2021/12/16 03:51:42;;;;;;;84.60;36.97;;;8.30;99.90;;;;;;5074806;28;20194;-68
2021/12/16 03:54:24;;;;;;;94.70;37.07;;;8.30;99.90;;;;;;5093295;28;20251;-68
2021/12/16 03:56:53;;;;;;;100.13;38.33;;;8.30;99.90;;;;;;5095721;28;20198;-68
2021/12/16 03:59:25;;;;;;;84.93;36.47;;;8.30;99.90;;;;;;5095781;28;20523;-68
2021/12/16 04:01:52;;;;;;;87.27;36.23;;;8.30;99.90;;;;;;5096943;28;20661;-68
2021/12/16 04:04:18;;;;;;;85.07;38.37;;;8.20;99.90;;;;;;5096788;28;20242;-68
2021/12/16 04:06:44;;;;;;;83.50;35.00;;;8.20;99.90;;;;;;5095510;28;20185;-68
2021/12/16 04:09:13;;;;;;;87.27;37.07;;;8.10;99.90;;;;;;5095345;28;20571;-68
2021/12/16 04:11:44;;;;;;;91.07;38.07;;;8.10;99.90;;;;;;5097167;28;20173;-67
2021/12/16 04:14:13;;;;;;;89.53;38.30;;;8.10;99.90;;;;;;5095483;28;20672;-67
2021/12/16 04:16:52;;;;;;;100.33;39.17;;;8.10;99.90;;;;;;5095185;28;20232;-67
2021/12/16 04:19:30;;;;;;;97.53;39.17;;;8.10;99.90;;;;;;5096858;28;20164;-68
2021/12/16 04:22:05;;;;;;;101.73;41.13;;;8.10;99.90;;;;;;5096583;28;20583;-68
2021/12/16 04:24:31;;;;;;;95.57;41.07;;;8.10;99.90;;;;;;5096341;28;20197;-68
2021/12/16 04:26:58;;;;;;;94.47;38.17;;;8.10;99.90;;;;;;5096373;28;20168;-67
2021/12/16 04:29:25;;;;;;;105.33;39.00;;;8.10;99.90;;;;;;5096765;28;20177;-67
2021/12/16 04:31:56;;;;;;;92.80;38.50;;;8.20;99.90;;;;;;5096312;28;20177;-67
2021/12/16 04:34:22;;;;;;;96.20;36.80;;;8.20;99.90;;;;;;5095428;28;20220;-68
2021/12/16 04:36:48;;;;;;;88.40;37.93;;;8.20;99.90;;;;;;5095014;28;20693;-67
2021/12/16 04:39:19;;;;;;;90.10;35.63;;;8.20;99.90;;;;;;5096376;28;20180;-68
2021/12/16 04:41:45;;;;;;;84.63;35.60;;;8.10;99.90;;;;;;5096929;28;20161;-67
2021/12/16 04:44:14;;;;;;;84.90;38.40;;;8.10;99.90;;;;;;5096142;28;20203;-67
2021/12/16 04:46:42;;;;;;;94.40;37.40;;;8.10;99.90;;;;;;5095831;28;20244;-67
2021/12/16 04:49:09;;;;;;;87.10;36.17;;;8.10;99.90;;;;;;5096166;28;20215;-67
2021/12/16 04:51:38;;;;;;;90.97;36.67;;;8.10;99.90;;;;;;5095658;28;20268;-67
2021/12/16 04:54:05;;;;;;;83.70;35.93;;;8.10;99.90;;;;;;5095730;28;20215;-67
2021/12/16 04:56:31;;;;;;;92.23;37.47;;;8.00;99.90;;;;;;5095589;28;20250;-67
2021/12/16 04:58:58;;;;;;;88.07;36.47;;;8.00;99.90;;;;;;5096146;28;20166;-67
2021/12/16 05:01:24;;;;;;;89.97;39.47;;;8.00;99.90;;;;;;5095838;28;20173;-67
2021/12/16 05:03:51;;;;;;;80.03;36.40;;;8.00;99.90;;;;;;5095534;28;20565;-67
2021/12/16 05:06:18;;;;;;;95.07;37.47;;;8.00;99.90;;;;;;5095587;28;20172;-67
2021/12/16 05:08:44;;;;;;;91.83;38.60;;;8.00;99.90;;;;;;5094388;28;20181;-67
2021/12/16 05:11:14;;;;;;;78.97;35.83;;;8.00;99.90;;;;;;5095628;28;20243;-67
2021/12/16 05:13:42;;;;;;;86.13;34.93;;;8.00;99.90;;;;;;5094140;28;20193;-67
2021/12/16 05:16:08;;;;;;;87.30;37.20;;;7.90;99.90;;;;;;5095357;28;20242;-67
2021/12/16 05:18:37;;;;;;;95.83;38.17;;;7.90;99.90;;;;;;5095467;28;20165;-67
2021/12/16 05:21:08;;;;;;;83.93;36.73;;;7.90;99.90;;;;;;5095398;28;20628;-67
2021/12/16 05:26:22;;;;;;;89.87;37.53;;;7.80;99.90;;;;;;5096165;28;20182;-64
2021/12/16 05:28:57;;;;;;;102.03;39.57;;;7.90;99.90;;;;;;5094022;28;20184;-64
2021/12/16 05:31:24;;;;;;;91.07;37.83;;;7.90;99.90;;;;;;5095504;28;20214;-64
2021/12/16 05:33:52;;;;;;;92.10;38.80;;;7.90;99.90;;;;;;5095418;28;20665;-64
2021/12/16 05:36:18;;;;;;;88.20;36.63;;;7.90;99.90;;;;;;5095327;28;20204;-64
2021/12/16 05:38:44;;;;;;;88.27;36.73;;;7.90;99.90;;;;;;5095313;28;20248;-64
2021/12/16 05:41:13;;;;;;;87.00;38.00;;;8.00;99.90;;;;;;5095613;28;20632;-65
2021/12/16 05:43:39;;;;;;;89.97;38.70;;;8.00;99.90;;;;;;5095151;28;20757;-64
2021/12/16 05:46:07;;;;;;;88.53;38.30;;;8.00;99.90;;;;;;5095144;28;20256;-64
2021/12/16 05:48:37;;;;;;;85.53;36.60;;;8.00;99.90;;;;;;5095090;28;20177;-64
2021/12/16 05:51:08;;;;;;;87.07;37.40;;;8.00;99.90;;;;;;5095070;28;20165;-64
2021/12/16 05:53:35;;;;;;;77.37;35.23;;;8.00;99.90;;;;;;5094844;28;20220;-64
2021/12/16 05:56:01;;;;;;;85.23;36.33;;;8.00;99.90;;;;;;5093588;28;20208;-64
2021/12/16 05:58:28;;;;;;;90.47;35.80;;;8.00;99.90;;;;;;5094328;28;20227;-64
2021/12/16 06:00:59;;;;;;;89.57;37.63;;;7.90;99.90;;;;;;5094860;28;20260;-64
2021/12/16 06:03:28;;;;;;;84.97;37.13;;;7.90;99.90;;;;;;5093445;28;20189;-64
2021/12/16 06:05:54;;;;;;;85.00;38.33;;;7.90;99.90;;;;;;5093464;28;20181;-64
2021/12/16 06:08:21;;;;;;;102.90;38.30;;;7.90;99.90;;;;;;5094672;28;20181;-64
2021/12/16 06:13:44;;;;;;;92.53;40.13;;;7.90;99.90;;;;;;5094565;28;20230;-64
2021/12/16 06:27:13;;;;;;;98.53;41.77;;;7.80;99.90;;;;;;5095059;28;20168;-64
2021/12/16 06:29:43;;;;;;;97.93;37.90;;;7.80;99.90;;;;;;5094420;28;20186;-64
2021/12/16 06:32:09;;;;;;;82.40;36.17;;;7.80;99.90;;;;;;5094588;28;20177;-64
2021/12/16 06:34:35;;;;;;;81.27;36.67;;;7.70;99.90;;;;;;5094073;28;20275;-64
2021/12/16 06:37:00;;;;;;;93.70;39.57;;;7.70;99.90;;;;;;5094183;28;20181;-64
2021/12/16 06:39:26;;;;;;;86.77;36.27;;;7.70;99.90;;;;;;5094062;28;20169;-64
2021/12/16 06:41:52;;;;;;;84.93;38.47;;;7.60;99.90;;;;;;5094120;28;20260;-64
2021/12/16 06:44:26;;;;;;;87.07;37.23;;;7.60;99.90;;;;;;5094454;28;20193;-64
2021/12/16 06:46:57;;;;;;;79.23;37.43;;;7.60;99.90;;;;;;5092837;28;20172;-64
2021/12/16 06:49:24;;;;;;;85.70;36.37;;;7.50;99.90;;;;;;5094275;28;20165;-64
2021/12/16 06:51:58;;;;;;;85.97;37.67;;;7.60;99.90;;;;;;5093815;28;20200;-64
2021/12/16 07:00:04;;;;;;;87.20;39.77;;;7.50;99.90;;;;;;5094145;28;20165;-64
2021/12/16 07:02:46;;;;;;;77.87;34.10;;;7.40;99.90;;;;;;5093857;28;20154;-65
2021/12/16 07:05:13;;;;;;;84.80;38.07;;;7.40;99.90;;;;;;5092395;28;20250;-64
2021/12/16 07:07:40;;;;;;;86.73;35.53;;;7.40;99.90;;;;;;5092393;28;20180;-64
2021/12/16 07:10:09;;;;;;;81.90;36.90;;;7.30;99.90;;;;;;5092848;28;20170;-64
2021/12/16 07:12:36;;;;;;;90.27;36.97;;;7.30;99.90;;;;;;5092326;28;20175;-64
2021/12/16 07:15:12;;;;;;;87.63;37.87;;;7.30;99.90;;;;;;5093447;28;20205;-64
2021/12/16 07:17:40;;;;;;;96.53;37.17;;;7.30;99.90;;;;;;5094203;28;20158;-64
2021/12/16 07:20:09;;;;;;;80.97;37.13;;;7.40;99.90;;;;;;5092244;28;20633;-64
2021/12/16 07:22:35;;;;;;;87.57;37.57;;;7.40;99.90;;;;;;5093785;28;20172;-64
2021/12/16 07:25:03;;;;;;;89.57;37.13;;;7.40;99.90;;;;;;5093363;28;20197;-64
2021/12/16 07:27:30;;;;;;;86.83;37.77;;;7.40;99.90;;;;;;5092034;28;20279;-64
2021/12/16 07:29:55;;;;;;;93.93;38.47;;;7.50;99.90;;;;;;5093449;28;20177;-64
2021/12/16 07:32:21;;;;;;;98.33;38.57;;;7.40;99.90;;;;;;5093403;28;20184;-64
2021/12/16 07:34:47;;;;;;;96.03;37.70;;;7.50;99.90;;;;;;5093444;28;20235;-64
2021/12/16 07:37:13;;;;;;;95.30;39.97;;;7.50;99.90;;;;;;5093588;28;20234;-64
2021/12/16 07:39:41;;;;;;;91.10;38.10;;;7.50;99.90;;;;;;5093622;28;20239;-64
2021/12/16 07:42:11;;;;;;;94.10;40.50;;;7.50;99.90;;;;;;5093500;28;20252;-64
2021/12/16 07:44:37;;;;;;;95.20;36.87;;;7.50;99.90;;;;;;5093788;28;20207;-64
2021/12/16 07:47:07;;;;;;;86.37;36.97;;;7.50;99.90;;;;;;5093315;28;20173;-64
2021/12/16 07:49:40;;;;;;;79.33;32.77;;;7.50;99.90;;;;;;5093421;28;20280;-64
2021/12/16 07:52:08;;;;;;;84.90;36.93;;;7.60;99.90;;;;;;5093477;28;20192;-64
2021/12/16 07:54:34;;;;;;;77.47;34.73;;;7.60;99.90;;;;;;5093034;28;20194;-64
2021/12/16 07:57:01;;;;;;;80.73;34.87;;;7.60;99.90;;;;;;5093212;28;20192;-64
2021/12/16 07:59:29;;;;;;;88.53;37.27;;;7.60;99.90;;;;;;5093174;28;20176;-64
2021/12/16 08:01:55;;;;;;;85.50;35.07;;;7.60;99.90;;;;;;5093148;28;20668;-64
2021/12/16 08:04:27;;;;;;;81.20;33.50;;;7.60;99.90;;;;;;5093542;28;20205;-64
2021/12/16 08:06:56;;;;;;;72.47;31.43;;;7.60;99.90;;;;;;5093406;28;20153;-64
2021/12/16 08:09:22;;;;;;;85.83;35.37;;;7.70;99.90;;;;;;5093261;28;20245;-64
2021/12/16 08:11:50;;;;;;;83.53;34.70;;;7.70;99.90;;;;;;5093037;28;20166;-64
2021/12/16 08:14:17;;;;;;;89.63;41.23;;;7.70;99.90;;;;;;5093207;28;20225;-64
2021/12/16 08:16:44;;;;;;;81.70;33.53;;;7.70;99.90;;;;;;5091756;28;20673;-64
2021/12/16 08:19:10;;;;;;;83.37;34.40;;;7.70;99.90;;;;;;5093282;28;20161;-64
2021/12/16 08:21:38;;;;;;;86.43;36.43;;;7.70;99.90;;;;;;5095423;28;20168;-64
2021/12/16 08:24:07;;;;;;;87.83;36.47;;;7.70;99.90;;;;;;5097146;28;20196;-64
2021/12/16 08:26:35;;;;;;;86.97;36.00;;;7.80;99.90;;;;;;5097064;28;20177;-64
2021/12/16 08:29:01;;;;;;;82.53;36.03;;;7.80;99.90;;;;;;5095389;28;20181;-64
2021/12/16 08:31:27;;;;;;;92.43;34.97;;;7.80;99.90;;;;;;5096640;28;20533;-64
2021/12/16 08:33:55;;;;;;;84.90;34.67;;;7.80;99.90;;;;;;5095571;28;20279;-64
2021/12/16 08:36:21;;;;;;;83.53;37.10;;;7.90;99.90;;;;;;5096491;28;20699;-64
2021/12/16 08:38:47;;;;;;;80.17;35.90;;;7.90;99.90;;;;;;5096469;28;20173;-65
2021/12/16 08:41:22;;;;;;;74.50;33.53;;;7.90;99.90;;;;;;5096500;28;20705;-64
2021/12/16 08:43:49;;;;;;;83.67;38.47;;;8.00;99.90;;;;;;5096627;28;20185;-65
2021/12/16 08:46:17;;;;;;;68.13;32.10;;;8.00;99.90;;;;;;5096322;28;20173;-64
2021/12/16 08:48:44;;;;;;;90.57;37.83;;;8.00;99.90;;;;;;5094962;28;20234;-64
2021/12/16 08:51:12;;;;;;;91.20;40.07;;;8.00;99.90;;;;;;5096284;28;20177;-64
2021/12/16 08:53:38;;;;;;;86.70;36.60;;;8.00;99.90;;;;;;5094905;28;20212;-64
2021/12/16 08:56:05;;;;;;;77.90;37.63;;;8.00;99.90;;;;;;5096065;28;20629;-64
2021/12/16 08:58:32;;;;;;;82.47;35.53;;;8.00;99.90;;;;;;5096103;28;20201;-64
2021/12/16 09:01:13;;;;;;;79.50;36.40;;;8.00;99.90;;;;;;5094806;28;20230;-64
2021/12/16 09:03:39;;;;;;;91.17;37.87;;;8.00;99.90;;;;;;5096225;28;20672;-64
2021/12/16 09:06:05;;;;;;;87.80;36.67;;;8.00;99.90;;;;;;5096483;28;20526;-64
2021/12/16 09:08:31;;;;;;;85.37;37.93;;;8.00;99.90;;;;;;5094618;28;20264;-64
2021/12/16 09:10:57;;;;;;;89.00;36.53;;;8.10;99.90;;;;;;5094848;28;20181;-64
2021/12/16 09:13:24;;;;;;;86.43;37.87;;;8.10;99.90;;;;;;5094396;28;20209;-64
2021/12/16 09:16:00;;;;;;;87.07;34.63;;;8.10;99.90;;;;;;5096193;28;20204;-64
2021/12/16 09:18:29;;;;;;;88.30;36.97;;;8.10;99.90;;;;;;5096073;28;20175;-64
2021/12/16 09:20:57;;;;;;;88.47;37.07;;;8.10;99.90;;;;;;5095674;28;20169;-64
2021/12/16 09:23:23;;;;;;;86.47;37.13;;;8.10;99.90;;;;;;5094246;28;20173;-64
2021/12/16 09:25:50;;;;;;;85.33;35.97;;;8.10;99.90;;;;;;5095580;28;20664;-64
2021/12/16 09:28:19;;;;;;;91.50;37.37;;;8.10;99.90;;;;;;5095542;28;20181;-64
2021/12/16 09:30:46;;;;;;;98.97;39.93;;;8.20;99.90;;;;;;5094531;28;20177;-64
2021/12/16 09:33:15;;;;;;;98.40;40.03;;;8.20;99.90;;;;;;5094805;28;20184;-65
2021/12/16 09:35:44;;;;;;;99.10;41.17;;;8.20;99.90;;;;;;5095379;28;20265;-64
2021/12/16 09:38:12;;;;;;;101.27;39.27;;;8.30;99.90;;;;;;5095505;28;20169;-64
2021/12/16 09:40:46;;;;;;;96.80;39.43;;;8.30;99.90;;;;;;5094093;28;20176;-64
2021/12/16 09:43:12;;;;;;;97.77;38.20;;;8.30;99.90;;;;;;5095850;28;20510;-65
2021/12/16 09:45:38;;;;;;;92.90;38.60;;;8.40;99.90;;;;;;5095189;28;20169;-64
2021/12/16 09:48:04;;;;;;;98.30;39.63;;;8.40;99.90;;;;;;5095080;28;20685;-64
2021/12/16 09:50:31;;;;;;;103.10;40.53;;;8.40;99.90;;;;;;5095059;28;20196;-64
2021/12/16 09:52:58;;;;;;;108.57;42.47;;;8.50;99.90;;;;;;5094941;28;20189;-64
2021/12/16 09:55:24;;;;;;;112.67;41.63;;;8.50;99.90;;;;;;5093536;28;20217;-64
2021/12/16 09:57:51;;;;;;;103.73;43.20;;;8.50;99.90;;;;;;5094506;28;20515;-64
2021/12/16 10:00:22;;;;;;;100.40;39.73;;;8.60;99.90;;;;;;5095405;28;20176;-64
2021/12/16 10:02:52;;;;;;;117.90;43.57;;;8.60;99.90;;;;;;5094937;28;20222;-64
2021/12/16 10:05:19;;;;;;;100.80;39.43;;;8.60;99.90;;;;;;5095157;28;20196;-64
2021/12/16 10:07:46;;;;;;;114.07;43.70;;;8.70;99.90;;;;;;5095390;28;20165;-64
2021/12/16 10:10:16;;;;;;;104.13;40.63;;;8.70;99.90;;;;;;5093423;28;20613;-64
2021/12/16 10:12:45;;;;;;;105.13;41.37;;;8.70;99.90;;;;;;5095021;28;20165;-64
2021/12/16 10:18:19;;;;;;;107.33;41.27;;;8.70;99.90;;;;;;5072255;28;20178;-64
2021/12/16 10:20:57;;;;;;;112.53;39.47;;;8.70;99.90;;;;;;5089718;28;20193;-64
2021/12/16 10:23:25;;;;;;;121.80;44.20;;;8.70;99.90;;;;;;5094932;28;20149;-64
2021/12/16 10:25:57;;;;;;;112.97;42.07;;;8.60;99.90;;;;;;5094470;28;20366;-64
2021/12/16 10:28:26;;;;;;;118.00;45.00;;;8.70;99.90;;;;;;5094515;28;20180;-64
2021/12/16 10:31:04;;;;;;;116.57;42.17;;;8.60;99.90;;;;;;5094314;28;20184;-64
2021/12/16 10:33:38;;;;;;;112.23;43.27;;;8.60;99.90;;;;;;5093031;28;20246;-64
2021/12/16 10:36:11;;;;;;;129.17;44.63;;;8.70;99.90;;;;;;5094193;28;20191;-64
2021/12/16 10:38:41;;;;;;;121.40;44.20;;;8.60;99.90;;;;;;5092931;28;20226;-64
2021/12/16 10:41:11;;;;;;;128.53;43.30;;;8.60;99.90;;;;;;5094142;28;20149;-64
2021/12/16 10:44:01;;;;;;;110.77;42.10;;;8.70;99.90;;;;;;5094152;28;20242;-64
2021/12/16 10:46:30;;;;;;;126.20;43.27;;;8.70;99.90;;;;;;5094755;28;20177;-64
2021/12/16 10:48:59;;;;;;;111.67;40.73;;;8.70;99.90;;;;;;5092739;28;20210;-64
2021/12/16 10:51:27;;;;;;;110.33;42.73;;;8.70;99.90;;;;;;5094705;28;20567;-64
2021/12/16 10:54:18;;;;;;;121.77;42.93;;;8.70;99.90;;;;;;5093826;28;20192;-64
2021/12/16 10:56:53;;;;;;;113.20;40.27;;;8.70;99.90;;;;;;5074300;28;20244;-64
2021/12/16 10:59:24;;;;;;;117.80;44.23;;;8.70;99.90;;;;;;5093865;28;20196;-64
2021/12/16 11:02:01;;;;;;;121.37;43.23;;;8.70;99.90;;;;;;5092564;28;20169;-64
2021/12/16 11:04:26;;;;;;;114.17;41.27;;;8.70;99.90;;;;;;5092874;28;20653;-64
2021/12/16 11:06:58;;;;;;;113.03;41.00;;;8.70;99.90;;;;;;5093969;28;20172;-64
2021/12/16 11:09:47;;;;;;;118.97;45.60;;;8.70;99.90;;;;;;5094015;28;20551;-64
2021/12/16 11:12:39;;;;;;;107.30;40.30;;;8.70;99.90;;;;;;5093912;28;20158;-64
2021/12/16 11:15:48;;;;;;;116.87;40.87;;;8.80;99.90;;;;;;5093518;28;20283;-63
2021/12/16 11:18:16;;;;;;;118.83;42.67;;;8.80;99.90;;;;;;5093550;28;20699;-63
2021/12/16 11:20:53;;;;;;;111.33;38.40;;;8.80;99.90;;;;;;5093858;28;20145;-62
2021/12/16 11:23:40;;;;;;;111.73;44.53;;;8.80;99.90;;;;;;5092554;28;20264;-63
2021/12/16 11:26:10;;;;;;;111.37;44.17;;;8.80;99.90;;;;;;5092218;28;20187;-63
2021/12/16 11:28:47;;;;;;;95.40;37.97;;;8.80;99.90;;;;;;5092200;28;20191;-63
2021/12/16 11:31:19;;;;;;;103.20;38.73;;;8.80;99.90;;;;;;5093821;28;20240;-63
2021/12/16 11:33:51;;;;;;;119.83;41.50;;;8.90;99.90;;;;;;5092174;28;20209;-63
2021/12/16 11:36:27;;;;;;;120.87;41.93;;;8.90;99.90;;;;;;5094366;28;20205;-64
2021/12/16 11:39:03;;;;;;;107.27;41.30;;;8.90;99.90;;;;;;5093645;28;20184;-64
2021/12/16 11:41:40;;;;;;;116.27;42.00;;;8.80;99.90;;;;;;5092151;28;20172;-64
2021/12/16 11:44:11;;;;;;;120.83;40.53;;;8.80;99.90;;;;;;5093474;28;20192;-64
2021/12/16 11:46:48;;;;;;;121.90;42.67;;;8.80;99.90;;;;;;5092133;28;20196;-64
2021/12/16 11:49:23;;;;;;;115.20;41.90;;;8.80;99.90;;;;;;5092089;28;20168;-64
2021/12/16 11:51:56;;;;;;;109.93;41.00;;;8.80;99.90;;;;;;5093358;28;20206;-64
2021/12/16 11:54:26;;;;;;;108.17;40.20;;;8.90;99.90;;;;;;5091970;28;20259;-64
2021/12/16 11:56:57;;;;;;;114.33;42.17;;;8.90;99.90;;;;;;5096261;28;20242;-64
2021/12/16 11:59:36;;;;;;;97.90;38.97;;;8.90;99.90;;;;;;5097800;28;20169;-64
2021/12/16 12:02:03;;;;;;;112.93;40.03;;;9.00;99.90;;;;;;5097492;28;20616;-64
2021/12/16 12:04:35;;;;;;;124.17;43.20;;;9.00;99.90;;;;;;5097237;28;20213;-64
2021/12/16 12:07:13;;;;;;;118.13;41.93;;;9.00;99.90;;;;;;5095869;28;20605;-64
2021/12/16 12:09:45;;;;;;;102.43;37.03;;;9.00;99.90;;;;;;5095741;28;20185;-64
2021/12/16 12:12:12;;;;;;;106.27;39.40;;;9.00;99.90;;;;;;5097287;28;20336;-64
2021/12/16 12:14:40;;;;;;;107.57;40.47;;;9.10;99.90;;;;;;5095605;28;20563;-64
2021/12/16 12:17:20;;;;;;;118.40;40.40;;;9.10;99.90;;;;;;5095553;28;20209;-64
2021/12/16 12:19:51;;;;;;;104.53;36.70;;;9.10;99.90;;;;;;5097170;28;20149;-63
2021/12/16 12:22:25;;;;;;;102.87;37.73;;;9.10;99.90;;;;;;5096812;28;20630;-63
2021/12/16 12:24:52;;;;;;;121.90;41.23;;;9.20;99.90;;;;;;5096640;28;20189;-63
2021/12/16 12:27:25;;;;;;;106.93;39.90;;;9.20;99.90;;;;;;5095449;28;20177;-64
2021/12/16 12:29:57;;;;;;;109.13;39.73;;;9.20;99.90;;;;;;5095454;28;20192;-67
2021/12/16 12:32:35;;;;;;;93.43;34.43;;;9.20;99.90;;;;;;5096926;28;20263;-64
2021/12/16 12:35:24;;;;;;;110.80;40.33;;;9.20;99.90;;;;;;5096764;28;20272;-64
2021/12/16 12:37:54;;;;;;;98.67;38.27;;;9.20;99.90;;;;;;5096532;28;20158;-64
2021/12/16 12:40:25;;;;;;;96.40;36.30;;;9.20;99.90;;;;;;5096681;28;20180;-64
2021/12/16 12:42:54;;;;;;;102.30;37.30;;;9.20;99.90;;;;;;5096420;28;20238;-64
2021/12/16 12:45:28;;;;;;;120.43;38.50;;;9.20;99.90;;;;;;5096243;28;20193;-64
2021/12/16 12:47:57;;;;;;;101.07;36.53;;;9.20;99.90;;;;;;5096754;28;20184;-64
2021/12/16 12:50:33;;;;;;;179.77;62.60;;;9.20;99.90;;;;;;5096577;28;20170;-64
2021/12/16 12:53:10;;;;;;;148.63;54.57;;;9.20;99.90;;;;;;5096535;28;20188;-65
2021/12/16 12:55:36;;;;;;;114.80;51.97;;;9.20;99.90;;;;;;5096414;28;20242;-65
2021/12/16 12:58:14;;;;;;;94.50;40.10;;;9.30;99.90;;;;;;5096736;28;20166;-66
2021/12/16 13:00:46;;;;;;;111.23;37.57;;;9.30;99.90;;;;;;5096325;28;20188;-64
2021/12/16 13:03:25;;;;;;;90.23;33.97;;;9.30;99.90;;;;;;5096296;28;20252;-66
2021/12/16 13:05:53;;;;;;;85.00;32.97;;;9.30;99.90;;;;;;5096611;28;20256;-66
2021/12/16 13:08:27;;;;;;;100.60;37.67;;;9.30;99.90;;;;;;5094586;28;20197;-66
2021/12/16 13:10:59;;;;;;;99.93;37.93;;;9.30;99.90;;;;;;5096204;28;20161;-66
2021/12/16 13:16:11;;;;;;;102.43;38.50;;;9.30;99.90;;;;;;5096114;28;20213;-67
2021/12/16 13:32:46;;;;;;;98.73;35.40;;;9.50;99.90;;;;;;5095493;28;20564;-64
2021/12/16 13:37:55;;;;;;;92.90;33.50;;;9.50;99.90;;;;;;5096470;28;20596;-64
2021/12/16 13:40:36;;;;;;;87.27;33.80;;;9.40;99.90;;;;;;5095606;28;20210;-64
2021/12/16 13:43:14;;;;;;;88.87;31.87;;;9.50;99.90;;;;;;5095896;28;20168;-64
2021/12/16 13:45:54;;;;;;;93.90;35.90;;;9.40;99.90;;;;;;5095276;28;20157;-65
2021/12/16 14:05:28;;;;;;;103.47;35.73;;;9.40;99.90;;;;;;5094826;28;20200;-64
2021/12/16 14:08:00;;;;;;;79.30;32.40;;;9.40;99.90;;;;;;5094640;28;20189;-64
2021/12/16 14:10:42;;;;;;;88.23;36.70;;;9.40;99.90;;;;;;5094197;28;20181;-65
2021/12/16 14:31:09;;;;;;;96.70;36.57;;;9.30;99.90;;;;;;5094489;28;20199;-64
2021/12/16 14:45:08;;;;;;;100.20;40.33;;;9.10;99.90;;;;;;5093223;28;20189;-64
2021/12/16 14:47:10;;;;;;;83.23;35.90;;;9.10;99.90;;;;;;5093935;28;20729;-64
2021/12/16 14:49:41;;;;;;;92.83;37.07;;;9.10;99.90;;;;;;5092834;28;20164;-64
2021/12/16 14:52:19;;;;;;;87.80;35.07;;;9.10;99.90;;;;;;5092541;28;20558;-64
2021/12/16 14:54:49;;;;;;;83.17;33.57;;;9.10;99.90;;;;;;5092595;28;20707;-63
2021/12/16 14:57:39;;;;;;;82.13;34.67;;;9.10;99.90;;;;;;5092600;28;20189;-64
2021/12/16 15:00:27;;;;;;;85.63;33.33;;;9.10;99.90;;;;;;5092665;28;20201;-64
2021/12/16 15:03:18;;;;;;;80.50;32.43;;;9.10;99.90;;;;;;5076830;28;20173;-65
2021/12/16 15:05:53;;;;;;;82.10;34.07;;;9.10;99.90;;;;;;5093078;28;20630;-67
2021/12/16 15:08:36;;;;;;;83.30;34.13;;;9.10;99.90;;;;;;5093754;28;20176;-65
2021/12/16 15:11:08;;;;;;;97.90;34.77;;;9.10;99.90;;;;;;5094389;28;20173;-64
2021/12/16 15:13:43;;;;;;;85.37;34.77;;;9.10;99.90;;;;;;5092997;28;20200;-64
2021/12/16 15:44:12;;;;;;;87.07;36.03;;;9.00;99.90;;;;;;5093798;28;20199;-64
2021/12/16 15:46:38;;;;;;;93.37;35.37;;;9.00;99.90;;;;;;5093374;28;20173;-64
2021/12/16 15:49:04;;;;;;;88.80;34.47;;;9.00;99.90;;;;;;5093357;28;20276;-64
2021/12/16 15:51:30;;;;;;;90.83;33.70;;;9.00;99.90;;;;;;5093317;28;20181;-65
2021/12/16 15:54:00;;;;;;;88.13;35.43;;;9.00;99.90;;;;;;5093571;28;20253;-64
2021/12/16 15:56:31;;;;;;;89.23;34.20;;;9.00;99.90;;;;;;5091980;28;20580;-64
2021/12/16 15:59:08;;;;;;;86.07;34.87;;;9.00;99.90;;;;;;5093253;28;20165;-64
2021/12/16 16:01:44;;;;;;;85.60;34.47;;;9.00;99.90;;;;;;5091983;28;20196;-64
2021/12/16 16:04:23;;;;;;;74.83;31.93;;;9.00;99.90;;;;;;5093406;28;20699;-64
2021/12/16 16:06:54;;;;;;;75.57;31.63;;;9.00;99.90;;;;;;5093758;28;20157;-64
2021/12/16 16:09:20;;;;;;;81.20;33.87;;;9.00;99.90;;;;;;5093110;28;20157;-64
2021/12/16 16:11:51;;;;;;;88.40;35.43;;;9.00;99.90;;;;;;5093625;28;20507;-64
2021/12/16 16:14:18;;;;;;;98.10;38.90;;;9.00;99.90;;;;;;5093433;28;20197;-64
2021/12/16 16:16:50;;;;;;;83.40;34.70;;;9.00;99.90;;;;;;5093049;28;20217;-64
2021/12/16 16:19:31;;;;;;;85.60;34.23;;;9.00;99.90;;;;;;5093095;28;20258;-64
2021/12/16 16:21:59;;;;;;;76.40;32.77;;;9.00;99.90;;;;;;5093073;28;20517;-64
2021/12/16 16:24:37;;;;;;;89.17;33.83;;;9.00;99.90;;;;;;5093007;28;20768;-64
2021/12/16 16:27:18;;;;;;;76.67;32.90;;;9.00;99.90;;;;;;5093111;28;20174;-66
2021/12/16 16:29:47;;;;;;;81.33;34.10;;;9.00;99.90;;;;;;5093278;28;20169;-67
2021/12/16 16:32:14;;;;;;;83.23;34.27;;;9.00;99.90;;;;;;5093588;28;20177;-67
2021/12/16 16:34:44;;;;;;;73.10;32.20;;;9.00;99.90;;;;;;5092970;28;20200;-67
2021/12/16 16:37:11;;;;;;;83.57;34.13;;;9.00;99.90;;;;;;5093110;28;20285;-65
2021/12/16 16:39:42;;;;;;;71.47;32.50;;;9.00;99.90;;;;;;5091548;28;20177;-62
2021/12/16 16:42:13;;;;;;;83.70;32.87;;;9.00;99.90;;;;;;5095024;28;20598;-63
2021/12/16 16:44:44;;;;;;;74.90;31.37;;;9.00;99.90;;;;;;5097315;28;20185;-66
2021/12/16 16:47:14;;;;;;;78.03;32.53;;;9.00;99.90;;;;;;5096773;28;20166;-63
2021/12/16 16:49:47;;;;;;;73.33;31.57;;;9.00;99.90;;;;;;5097014;28;20188;-64
2021/12/16 16:52:26;;;;;;;72.77;32.93;;;9.10;99.90;;;;;;5096504;28;20197;-63
2021/12/16 16:55:04;;;;;;;67.33;29.17;;;9.10;99.90;;;;;;5096143;28;20615;-63